Latest Weather Observations for Kilmore Gap

IDV60801

Issued at 6:52 am EST Tuesday 24 September 2019 (issued every 10 minutes, with the page automatically refreshed every 10 minutes)

About weather observations | Map of weather stations | Latest weather observations for VIC | Other Formats
Station Details ID: 088162 Name: KILMORE GAP Lat: -37.38 Lon: 144.97 Height: 527.8 m
Data from the previous 72 hours. | See also: Recent months at Kilmore Gap
Date/Time
EST
Temp
°C
App
Temp
°C
Dew
Point
°C
Rel
Hum
%
Delta-T
°C
Wind Press
QNH
hPa
Press
MSL
hPa
Rain since
9am
mm
Dir  Spd
km/h
Gust
km/h
Spd
kts
Gust
kts
24/06:30am 4.7 0.2 2.4 85 1.0 W 15 20 8 11 1027.6 1028.0 1.4
24/06:00am 4.2 0.2 2.7 90 0.6 W 13 20 7 11 1027.2 1027.5 1.4
24/05:30am 4.3 -0.1 2.8 90 0.6 W 15 19 8 10 1027.1 1027.4 1.4
24/05:00am 4.5 0.5 2.8 89 0.7 W 13 15 7 8 1026.9 1027.2 1.4
24/04:30am 4.7 0.0 3.0 89 0.7 WSW 17 22 9 12 1026.7 1027.0 1.4
24/04:00am 4.6 0.6 2.8 88 0.8 WSW 13 17 7 9 1026.7 1027.0 1.4
24/03:30am 4.6 0.6 2.8 88 0.8 WSW 13 15 7 8 1026.8 1027.1 1.4
24/03:00am 4.6 0.9 2.6 87 0.8 WSW 11 13 6 7 1027.0 1027.3 1.4
24/02:30am 4.8 1.2 3.0 88 0.8 WSW 11 13 6 7 1027.3 1027.6 1.4
24/02:00am 5.0 1.4 3.2 88 0.8 SW 11 15 6 8 1027.6 1028.0 1.4
24/01:30am 5.0 1.2 3.7 91 0.6 SW 13 19 7 10 1027.8 1028.2 1.4
24/01:00am 5.4 0.8 3.9 90 0.6 SW 17 19 9 10 1027.8 1028.2 1.4
24/12:30am 5.6 2.4 5.3 98 0.1 SW 11 17 6 9 1027.9 1028.3 1.4
24/12:00am 5.3 1.7 5.2 99 0.0 WSW 13 17 7 9 1027.9 1028.3 1.4
 
Date/Time
EST
Temp
°C
App
Temp
°C
Dew
Point
°C
Rel
Hum
%
Delta-T
°C
Wind Press
QNH
hPa
Press
MSL
hPa
Rain since
9am
mm
Dir  Spd
km/h
Gust
km/h
Spd
kts
Gust
kts
23/11:30pm 5.6 1.7 5.5 99 0.0 SW 15 20 8 11 1028.0 1028.4 1.4
23/11:00pm 6.0 1.4 5.7 98 0.1 SW 19 26 10 14 1027.8 1028.2 1.2
23/10:30pm 6.0 2.2 5.9 99 0.0 SW 15 20 8 11 1027.9 1028.3 1.2
23/10:00pm 6.5 2.0 6.1 97 0.2 SSW 19 26 10 14 1027.8 1028.2 1.2
23/09:56pm 6.6 2.1 6.2 97 0.2 SSW 19 30 10 16 1027.8 1028.2 1.2
23/09:30pm 6.8 3.1 6.5 98 0.1 SW 15 20 8 11 1027.9 1028.3 1.2
23/09:28pm 6.9 3.3 6.6 98 0.1 SW 15 20 8 11 1027.9 1028.3 1.2
23/09:00pm 6.2 2.8 5.9 98 0.1 SW 13 17 7 9 1027.6 1028.0 1.2
23/08:30pm 6.5 3.6 6.4 99 0.0 SW 11 15 6 8 1027.5 1027.9 1.2
23/08:00pm 6.4 3.5 6.3 99 0.0 S 11 15 6 8 1027.2 1027.5 1.2
23/07:30pm 6.4 3.8 6.3 99 0.0 SSE 9 11 5 6 1026.9 1027.2 1.2
23/07:00pm 6.3 3.7 6.2 99 0.0 SSE 9 13 5 7 1026.4 1026.8 1.2
23/06:30pm 6.6 3.3 6.5 99 0.0 SSE 13 17 7 9 1026.2 1026.6 1.2
23/06:16pm 7.1 3.9 7.0 99 0.0 S 13 17 7 9 1026.0 1026.4 1.2
23/06:00pm 7.3 4.4 6.7 96 0.3 SSW 11 20 6 11 1026.0 1026.4 1.2
23/05:55pm 7.4 4.5 6.7 95 0.3 S 11 15 6 8 1026.0 1026.4 0.8
23/05:30pm 8.0 4.4 6.6 91 0.7 SSW 15 20 8 11 1025.6 1025.9 0.4
23/05:00pm 8.4 5.4 7.8 96 0.3 S 13 17 7 9 1025.3 1025.6 0.4
23/04:30pm 8.4 6.3 8.3 99 0.0 SSE 9 13 5 7 1025.1 1025.4 0.4
23/04:16pm 8.6 6.6 8.5 99 0.0 S 9 13 5 7 1025.1 1025.4 0.4
23/04:00pm 8.3 5.0 8.0 98 0.1 SSW 15 20 8 11 1025.1 1025.4 0.4
23/03:54pm 8.4 4.7 8.0 97 0.2 S 17 24 9 13 1025.1 1025.4 0.4
23/03:30pm 9.3 5.1 5.7 78 1.7 SSW 17 26 9 14 1024.7 1025.0 0.0
23/03:00pm 10.0 5.6 5.0 71 2.3 SW 17 22 9 12 1024.6 1024.9 0.0
23/02:30pm 10.1 6.1 4.7 69 2.5 SW 15 22 8 12 1024.3 1024.7 0.0
23/02:00pm 10.5 6.3 5.9 73 2.2 WSW 17 24 9 13 1024.6 1024.9 0.0
23/01:30pm 9.2 5.1 6.3 82 1.4 WSW 17 22 9 12 1024.6 1024.9 0.0
23/01:00pm 9.3 4.3 4.5 72 2.2 SW 20 32 11 17 1024.5 1024.8 0.0
23/12:30pm 8.9 4.1 4.5 74 2.0 SW 19 28 10 15 1024.5 1024.8 0.0
23/12:00pm 8.8 3.9 4.0 72 2.2 SW 19 28 10 15 1024.1 1024.5 0.0
23/11:30am 8.0 2.8 3.3 72 2.1 SW 20 30 11 16 1024.1 1024.5 0.0
23/11:00am 7.6 3.0 3.5 75 1.8 SW 17 22 9 12 1024.0 1024.3 0.0
23/10:30am 7.2 2.5 3.1 75 1.8 SW 17 24 9 13 1024.0 1024.3 0.0
23/10:00am 7.8 2.1 3.1 72 2.0 WSW 22 33 12 18 1023.7 1024.0 0.0
23/09:30am 7.2 2.2 3.8 79 1.5 WSW 19 26 10 14 1023.5 1023.8 0.0
23/09:00am 7.1 2.2 4.2 82 1.3 WSW 19 26 10 14 1023.2 1023.5 1.0
23/08:30am 6.1 1.2 4.3 88 0.8 WSW 19 28 10 15 1022.9 1023.2 1.0
23/08:00am 5.7 1.7 5.0 95 0.3 WSW 15 20 8 11 1022.5 1022.7 1.0
23/07:30am 5.1 1.5 5.0 99 0.0 W 13 17 7 9 1021.9 1022.2 1.0
23/07:00am 4.8 1.9 4.7 99 0.0 WNW 9 13 5 7 1021.6 1021.9 1.0
23/06:34am 4.7 1.4 4.6 99 0.0 NNW 11 15 6 8 1021.1 1021.4 0.6
23/06:30am 4.7 1.0 4.6 99 0.0 NNW 13 17 7 9 1021.1 1021.4 0.6
23/06:07am 4.7 1.0 4.6 99 0.0 NW 13 17 7 9 1020.9 1021.2 0.4
23/06:00am 4.8 1.1 4.7 99 0.0 NW 13 17 7 9 1020.8 1021.0 0.2
23/05:30am 4.8 -0.2 4.5 98 0.1 NNW 20 28 11 15 1020.2 1020.5 0.2
23/05:00am 4.5 -1.4 4.1 97 0.2 NNW 24 32 13 17 1019.9 1020.2 0.2
23/04:30am 4.9 -1.0 3.7 92 0.5 NNW 24 33 13 18 1019.8 1020.1 0.2
23/04:00am 4.8 -1.5 3.8 93 0.4 NNW 26 33 14 18 1019.8 1020.1 0.2
23/03:30am 4.5 -1.1 3.6 94 0.4 NNW 22 26 12 14 1020.0 1020.3 0.2
23/03:00am 5.0 -0.4 2.7 85 1.0 NNW 20 28 11 15 1020.2 1020.5 0.0
23/02:30am 5.0 -0.4 2.5 84 1.0 N 20 22 11 12 1020.1 1020.4 0.0
23/02:00am 5.0 -0.2 2.4 83 1.1 N 19 20 10 11 1020.6 1020.8 0.0
23/01:30am 5.6 0.2 2.4 80 1.3 N 20 26 11 14 1021.1 1021.4 0.0
23/01:00am 5.4 0.6 2.4 81 1.3 N 17 20 9 11 1021.3 1021.6 0.0
23/12:30am 5.8 0.6 2.6 80 1.4 N 19 20 10 11 1021.6 1021.9 0.0
23/12:00am 5.9 0.1 2.5 79 1.4 N 22 24 12 13 1021.7 1022.0 0.0
 
Date/Time
EST
Temp
°C
App
Temp
°C
Dew
Point
°C
Rel
Hum
%
Delta-T
°C
Wind Press
QNH
hPa
Press
MSL
hPa
Rain since
9am
mm
Dir  Spd
km/h
Gust
km/h
Spd
kts
Gust
kts
22/11:30pm 6.0 1.2 2.5 78 1.5 N 17 20 9 11 1021.8 1022.1 0.0
22/11:00pm 6.4 1.6 2.7 77 1.6 N 17 20 9 11 1022.2 1022.5 0.0
22/10:30pm 7.0 1.6 2.5 73 1.9 N 20 32 11 17 1022.3 1022.6 0.0
22/10:00pm 6.8 1.6 2.3 73 1.9 N 19 22 10 12 1022.6 1022.9 0.0
22/09:30pm 6.9 1.6 1.8 70 2.1 N 19 22 10 12 1022.6 1022.9 0.0
22/09:00pm 7.2 2.4 2.5 72 2.0 NNW 17 20 9 11 1022.8 1023.1 0.0
22/08:30pm 7.2 2.0 2.3 71 2.1 NNW 19 22 10 12 1022.9 1023.2 0.0
22/08:00pm 7.6 2.3 2.1 68 2.3 NNW 19 22 10 12 1022.9 1023.2 0.0
22/07:30pm 7.3 2.4 2.0 69 2.2 NNW 17 20 9 11 1022.8 1023.1 0.0
22/07:00pm 8.0 3.1 2.3 67 2.4 NNW 17 24 9 13 1022.6 1022.9 0.0
22/06:30pm 8.1 2.7 2.4 67 2.5 NNW 20 26 11 14 1022.3 1022.6 0.0
22/06:00pm 8.4 3.6 2.6 67 2.5 NNW 17 20 9 11 1022.2 1022.5 0.0
22/05:30pm 8.6 3.4 2.4 65 2.7 NW 19 24 10 13 1022.2 1022.5 0.0
22/05:00pm 8.8 3.4 2.6 65 2.7 NNW 20 28 11 15 1022.0 1022.3 0.0
22/04:30pm 9.4 3.6 2.3 61 3.1 NNW 22 30 12 16 1021.7 1022.0 0.0
22/04:00pm 9.5 4.7 2.6 62 3.0 NW 17 24 9 13 1021.8 1022.1 0.0
22/03:30pm 9.6 3.4 2.2 60 3.2 NW 24 35 13 19 1021.7 1022.0 0.0
22/03:00pm 9.3 2.7 2.2 61 3.1 NNW 26 33 14 18 1021.7 1022.0 0.0
22/02:30pm 9.6 3.9 3.1 64 2.9 NW 22 33 12 18 1021.9 1022.2 0.0
22/02:00pm 10.0 5.5 4.2 67 2.6 NW 17 24 9 13 1022.1 1022.4 0.0
22/01:30pm 9.9 4.3 3.2 63 3.0 NW 22 30 12 16 1022.1 1022.4 0.0
22/01:00pm 8.8 3.2 3.2 68 2.5 NW 22 33 12 18 1022.5 1022.7 0.0
22/12:30pm 9.2 3.1 2.8 64 2.8 NW 24 32 13 17 1022.6 1022.9 0.0
22/12:00pm 9.7 4.4 3.2 64 2.9 NW 20 30 11 16 1022.8 1023.1 0.0
22/11:30am 10.2 4.9 3.0 61 3.2 NW 20 33 11 18 1022.7 1023.0 0.0
22/11:00am 9.7 4.1 3.7 66 2.7 NW 22 35 12 19 1022.8 1023.1 0.0
22/10:30am 9.4 4.3 4.0 69 2.4 NW 20 32 11 17 1023.0 1023.3 0.0
22/10:00am 8.0 1.9 2.9 70 2.2 NNW 24 33 13 18 1023.1 1023.4 0.0
22/09:30am 7.6 2.2 2.7 71 2.1 NNW 20 26 11 14 1023.1 1023.4 0.0
22/09:00am 6.8 2.1 2.9 76 1.7 NNW 17 26 9 14 1023.0 1023.3 3.2
22/08:30am 6.1 0.9 2.6 78 1.5 NNW 19 24 10 13 1022.7 1023.0 3.2
22/08:00am 5.6 1.2 2.6 81 1.3 NNW 15 20 8 11 1022.6 1022.9 3.2
22/07:30am 4.7 0.5 1.7 81 1.2 NNW 13 17 7 9 1022.2 1022.5 3.2
22/07:00am 3.4 -0.6 0.8 83 1.0 NNW 11 15 6 8 1022.1 1022.4 3.2
22/06:30am 4.1 0.0 -0.1 74 1.6 W 11 15 6 8 1021.6 1021.9 3.2
22/06:00am 3.8 -0.6 0.5 79 1.3 W 13 15 7 8 1021.1 1021.4 3.2
22/05:30am 3.8 -0.4 1.4 84 1.0 WNW 13 17 7 9 1020.9 1021.2 3.2
22/05:00am 3.9 -0.3 1.6 85 0.9 W 13 15 7 8 1020.3 1020.6 3.2
22/04:30am 4.0 -0.2 1.7 85 0.9 W 13 17 7 9 1019.9 1020.2 3.2
22/04:00am 4.3 -0.3 1.8 84 1.0 WSW 15 20 8 11 1019.7 1020.0 3.2
22/03:30am 4.5 -0.3 2.5 87 0.8 W 17 22 9 12 1019.7 1020.0 3.2
22/03:00am 4.9 0.7 3.6 91 0.6 W 15 20 8 11 1019.7 1020.0 3.2
22/02:30am 5.1 1.7 3.9 92 0.5 WSW 11 15 6 8 1019.5 1019.8 3.2
22/02:00am 5.8 2.1 4.6 92 0.5 SW 13 17 7 9 1019.5 1019.8 3.2
22/01:30am 6.0 2.5 5.3 95 0.3 SW 13 20 7 11 1019.5 1019.8 3.2
22/01:00am 6.2 2.3 5.3 94 0.4 WSW 15 20 8 11 1019.4 1019.7 3.2
22/12:30am 6.2 3.1 5.6 96 0.3 SW 11 15 6 8 1019.3 1019.6 3.2
22/12:00am 6.3 2.5 5.6 95 0.3 SW 15 26 8 14 1019.1 1019.3 3.2
 
Date/Time
EST
Temp
°C
App
Temp
°C
Dew
Point
°C
Rel
Hum
%
Delta-T
°C
Wind Press
QNH
hPa
Press
MSL
hPa
Rain since
9am
mm
Dir  Spd
km/h
Gust
km/h
Spd
kts
Gust
kts
21/11:30pm 6.4 2.6 5.7 95 0.3 SW 15 20 8 11 1018.7 1018.9 3.2
21/11:00pm 6.9 3.3 6.6 98 0.1 SW 15 19 8 10 1018.7 1018.9 3.2
21/10:30pm 6.9 3.6 6.5 97 0.2 WSW 13 17 7 9 1018.3 1018.6 3.2
21/10:00pm 7.5 3.3 5.8 89 0.8 WSW 17 24 9 13 1018.2 1018.5 3.0
21/09:30pm 8.0 4.6 5.8 86 1.0 WSW 13 20 7 11 1018.0 1018.3 3.0
21/09:00pm 8.1 5.1 5.9 86 1.0 WSW 11 15 6 8 1017.7 1018.0 3.0
21/08:30pm 8.0 4.3 6.1 88 0.9 WNW 15 19 8 10 1017.6 1017.8 3.0
21/08:00pm 8.1 4.0 6.4 89 0.8 WNW 17 22 9 12 1017.1 1017.3 3.0
21/07:30pm 8.0 5.4 6.1 88 0.9 WNW 9 13 5 7 1016.8 1017.0 3.0
21/07:00pm 9.8 6.7 5.4 74 2.1 WSW 11 17 6 9 1016.6 1016.8 2.4
21/06:30pm 10.1 7.8 5.5 73 2.2 W 7 11 4 6 1016.0 1016.3 2.4
21/06:00pm 10.5 5.8 6.1 74 2.1 NW 20 28 11 15 1015.4 1015.6 2.4
21/05:30pm 10.5 5.7 5.7 72 2.3 NW 20 32 11 17 1014.9 1015.1 2.4
21/05:00pm 11.9 6.4 5.8 66 2.9 WNW 24 39 13 21 1014.2 1014.4 2.4
21/04:59pm 11.8 6.1 5.0 63 3.2 WNW 24 39 13 21 1014.2 1014.4 2.4
21/04:30pm 11.3 2.8 5.2 66 2.9 NW 39 48 21 26 1013.4 1013.6 2.4
21/04:05pm 12.6 5.5 5.5 62 3.4 NW 32 50 17 27 1012.9 1013.1 2.4
21/04:00pm 12.5 4.7 4.7 59 3.7 NW 35 50 19 27 1012.6 1012.7 2.4
21/03:30pm 12.7 4.0 6.1 64 3.2 NW 41 59 22 32 1011.9 1012.1 2.4
21/03:02pm 12.5 2.8 7.4 71 2.5 NW 48 67 26 36 1011.1 1011.2 2.4
21/03:00pm 13.1 4.0 8.6 74 2.3 NW 46 63 25 34 1011.2 1011.4 2.4
21/02:30pm 12.8 3.1 9.1 78 1.9 NNW 50 72 27 39 1010.6 1010.7 2.4
21/02:01pm 12.6 4.1 8.7 77 2.0 NNW 43 61 23 33 1010.2 1010.4 2.4
21/02:00pm 12.6 4.2 8.9 78 1.9 NNW 43 54 23 29 1010.3 1010.5 2.4
21/01:45pm 11.9 2.8 8.6 80 1.7 NNW 46 65 25 35 1010.2 1010.4 2.4
21/01:30pm 11.5 2.3 8.2 80 1.7 NNW 46 61 25 33 1010.3 1010.5 2.4
21/01:15pm 11.4 2.3 8.3 81 1.6 NNW 46 65 25 35 1010.5 1010.6 2.4
21/01:00pm 11.4 1.5 8.3 81 1.6 NNW 50 65 27 35 1010.0 1010.2 2.4
21/12:38pm 11.7 3.2 8.6 81 1.6 NNW 43 72 23 39 1009.8 1010.0 2.4
21/12:30pm 11.2 3.3 9.3 88 1.0 NNW 41 56 22 30 1010.0 1010.2 2.4
21/12:14pm 10.1 4.0 9.6 97 0.3 NNW 32 52 17 28 1009.9 1010.1 2.4
21/12:02pm 10.2 4.6 10.1 99 0.1 NNW 30 43 16 23 1010.5 1010.6 2.4
21/12:00pm 10.3 4.7 10.1 99 0.1 NNW 30 39 16 21 1010.6 1010.7 2.4
21/11:34am 11.1 4.7 9.5 90 0.8 NW 33 52 18 28 1010.1 1010.3 1.2
21/11:30am 11.3 4.5 9.2 87 1.1 NNW 35 44 19 24 1010.1 1010.3 0.8
21/11:00am 12.6 6.1 8.1 74 2.3 NNW 32 41 17 22 1009.0 1009.1 0.2
21/10:30am 12.8 6.8 8.7 76 2.1 NNW 30 37 16 20 1009.1 1009.2 0.0
21/10:00am 13.8 7.0 7.8 67 3.1 N 33 44 18 24 1009.0 1009.1 0.0
21/09:30am 14.4 7.8 8.4 67 3.1 N 33 43 18 23 1009.0 1009.1 0.0
21/09:00am 14.5 8.0 9.1 70 2.8 N 33 41 18 22 1007.9 1008.0 0.0
21/08:30am 14.9 7.4 9.5 70 2.9 N 39 48 21 26 1008.2 1008.4 0.0
21/08:00am 15.4 7.2 9.7 69 3.1 N 43 54 23 29 1007.4 1007.5 0.0
21/07:30am 15.6 6.8 9.5 67 3.2 N 46 59 25 32 1007.3 1007.4 0.0
21/07:00am 15.7 6.1 9.4 66 3.4 N 50 63 27 34 1007.1 1007.2 0.0

Other formats

Comma delimited format used in spreadsheet applications
http://www.bom.gov.au/fwo/IDV60801/IDV60801.94860.axf

JavaScript Object Notation format (JSON) in row-major order
http://www.bom.gov.au/fwo/IDV60801/IDV60801.94860.json

Data quality

Most of these data are generated automatically and are frequently updated. Quality checks on data are not normally performed. It is possible for incorrect values to appear. Refer to information at About Latest Weather Observations and please check the disclaimer before using these data.